GMML

Hassan I Airport

El Aaiún, Western Sahara
TAF GMML 210500Z 2106/2212 03010KT CAVOK BECMG 2122/2124 SCT016
Issued Valid From Valid To
Aug-21 @ 05:00 UTC
(13 hours ago)
Aug-21 @ 06:00 UTC
(12 hours ago)
Aug-22 @ 12:00 UTC
(in 18 hours)
Aug-21 @ 06:00 to Aug-21 @ 22:00
TAF GMML 210500Z 2106/2212 03010KT CAVOK
Wind Visibility Clouds Conditions
30° at 10 knots 10,000+ meters
  • No significant clouds
Becoming Aug-21 @ 22:00 to Aug-22 @ 12:00
BECMG 2122/2124 SCT016
Wind Visibility Clouds Conditions
30° at 10 knots 10,000+ meters
  • Scattered at 1,600' AGL
TAF GMML 210500Z 2106/2212 03010KT CAVOK BECMG 2122/2124 SCT016
Issued Aug-21 @ 05:00 UTC
(13 hours ago)
Valid From Aug-21 @ 06:00 UTC
(12 hours ago)
Valid To Aug-22 @ 12:00 UTC
(in 18 hours)
Aug-21 @ 06:00 - Aug-21 @ 22:00
Wind Visibility
30° at 10 knots 10,000+ meters
Clouds
  • No significant clouds
Conditions
Becoming Aug-21 @ 22:00 - Aug-22 @ 12:00
Wind Visibility
30° at 10 knots 10,000+ meters
Clouds
  • Scattered at 1,600' AGL
Conditions